Terminal Aerodrome Forecast
Issued by NWS

Home | Current Version | Previous Version | Text Only | Print | Product List | Glossary On
Versions: 1 2 3 4 5 6 7 8 9 10 11 12 13 14 15 16 17 18 19
000
FTUS46 KSEW 302329
TAFOLM
TAF
KOLM 302329Z 0100/0124 21005KT P6SM FEW060
     FM010100 26004KT P6SM BKN070 BKN150
     FM011200 19004KT 4SM BR BKN100
     FM011600 19014G20KT 6SM -RA OVC070
     FM012200 20015G22KT 6SM -RA SCT025 OVC050=

USA.gov is the U.S. government's official web portal to all federal, state and local government web resources and services.